createdAt,value
2022-12-14T00:00:47.308Z,25.75
2022-12-14T00:05:53.467Z,24.68
2022-12-14T00:10:59.854Z,24.53
2022-12-14T00:16:06.051Z,24.27
2022-12-14T00:21:12.099Z,26.83
2022-12-14T00:26:18.313Z,24.82
2022-12-14T00:31:24.822Z,24.09
2022-12-14T00:36:30.949Z,25.09
2022-12-14T00:41:37.021Z,23.27
2022-12-14T00:46:43.253Z,24.31
2022-12-14T00:51:49.407Z,26.59
2022-12-14T00:56:55.659Z,23.21
2022-12-14T01:02:01.861Z,26.74
2022-12-14T01:07:07.960Z,26.39
2022-12-14T01:12:14.433Z,25.98
2022-12-14T01:17:20.628Z,24.84
2022-12-14T01:22:26.772Z,26.28
2022-12-14T01:27:33.012Z,26.83
2022-12-14T01:32:39.046Z,26.08
2022-12-14T01:37:45.259Z,24.48
2022-12-14T01:42:50.908Z,24.25
2022-12-14T01:47:57.377Z,25.31
2022-12-14T01:53:03.440Z,24.03
2022-12-14T01:58:09.601Z,25.92
2022-12-14T02:03:15.982Z,24.49
2022-12-14T02:08:22.264Z,22.53
2022-12-14T02:13:28.766Z,24.94
2022-12-14T02:18:34.212Z,22.89
2022-12-14T02:23:40.327Z,21.62
2022-12-14T02:28:46.551Z,21.70
2022-12-14T02:33:52.641Z,21.30
2022-12-14T02:38:59.042Z,22.47
2022-12-14T02:44:05.524Z,21.17
2022-12-14T02:49:11.724Z,21.16
2022-12-14T02:54:17.799Z,22.48
2022-12-14T02:59:24.540Z,22.21
2022-12-14T03:04:30.667Z,20.92
2022-12-14T03:09:36.854Z,20.66
2022-12-14T03:14:42.980Z,20.86
2022-12-14T03:19:49.165Z,20.62
2022-12-14T03:24:55.289Z,20.68
2022-12-14T03:30:01.913Z,20.57
2022-12-14T03:35:08.151Z,21.92
2022-12-14T03:40:14.801Z,20.74
2022-12-14T03:45:20.850Z,21.48
2022-12-14T03:50:27.121Z,20.22
2022-12-14T03:55:33.267Z,20.60
2022-12-14T04:00:39.836Z,20.00
2022-12-14T04:05:49.051Z,20.47
2022-12-14T04:10:51.559Z,20.59
2022-12-14T04:15:58.033Z,22.13
2022-12-14T04:21:04.226Z,19.91
2022-12-14T04:26:10.311Z,19.89
2022-12-14T04:31:16.561Z,19.90
2022-12-14T04:36:22.540Z,20.74
2022-12-14T04:41:28.724Z,18.75
2022-12-14T04:46:38.951Z,20.32
2022-12-14T04:51:40.945Z,22.38
2022-12-14T04:56:47.013Z,21.59
2022-12-14T05:01:53.290Z,20.50
2022-12-14T05:06:59.667Z,19.30
2022-12-14T05:12:06.045Z,19.21
2022-12-14T05:17:12.200Z,20.20
2022-12-14T05:22:18.607Z,19.55
2022-12-14T05:27:24.704Z,19.46
2022-12-14T05:32:30.882Z,18.23
2022-12-14T05:37:37.151Z,19.24
2022-12-14T05:42:46.098Z,20.37
2022-12-14T05:47:49.019Z,19.51
2022-12-14T05:52:55.637Z,19.23
2022-12-14T05:58:02.083Z,20.83
2022-12-14T06:03:08.389Z,19.15
2022-12-14T06:08:15.340Z,18.20
2022-12-14T06:13:21.528Z,17.93
2022-12-14T06:18:27.594Z,21.03
2022-12-14T06:23:33.922Z,19.54
2022-12-14T06:28:40.420Z,19.19
2022-12-14T06:33:46.571Z,19.58
2022-12-14T06:38:52.649Z,20.59
2022-12-14T06:43:59.562Z,18.59
2022-12-14T06:49:05.759Z,18.64
2022-12-14T06:54:11.966Z,19.22
2022-12-14T06:59:18.095Z,19.06
2022-12-14T07:04:24.208Z,19.31
2022-12-14T07:09:30.282Z,21.93
2022-12-14T07:14:37.289Z,20.97
2022-12-14T07:19:44.205Z,21.05
2022-12-14T07:24:49.965Z,18.99
2022-12-14T07:29:56.018Z,20.79
2022-12-14T07:35:02.170Z,18.55
2022-12-14T07:40:08.225Z,18.95
2022-12-14T07:45:14.373Z,20.74
2022-12-14T07:50:20.430Z,20.84
2022-12-14T07:55:26.601Z,19.62
2022-12-14T08:00:32.653Z,20.80
2022-12-14T08:05:38.820Z,26.77
2022-12-14T08:10:44.873Z,30.98
2022-12-14T08:15:51.170Z,41.93
2022-12-14T08:20:57.315Z,29.79
2022-12-14T08:26:03.557Z,22.50
2022-12-14T08:31:09.815Z,22.16
2022-12-14T08:36:15.927Z,19.91
2022-12-14T08:41:22.026Z,19.37
2022-12-14T08:46:28.216Z,22.15
2022-12-14T08:51:34.245Z,23.13
2022-12-14T08:56:40.546Z,21.69
2022-12-14T09:01:46.811Z,21.19
2022-12-14T09:06:52.858Z,20.59
2022-12-14T09:11:59.021Z,19.13
2022-12-14T09:17:05.298Z,21.07
2022-12-14T09:22:11.583Z,18.49
2022-12-14T09:27:17.612Z,20.72
2022-12-14T09:32:23.757Z,19.38
2022-12-14T09:37:29.908Z,16.78
2022-12-14T09:42:35.964Z,19.32
2022-12-14T09:47:42.205Z,20.14
2022-12-14T09:52:48.262Z,23.14
2022-12-14T09:57:54.496Z,21.79
2022-12-14T10:03:06.368Z,20.56
2022-12-14T10:08:06.547Z,19.57
2022-12-14T10:13:12.609Z,19.46
2022-12-14T10:18:49.404Z,20.76
2022-12-14T10:23:24.450Z,18.07
2022-12-14T10:28:30.946Z,20.66
2022-12-14T10:33:36.285Z,20.87
2022-12-14T10:38:42.443Z,22.09
2022-12-14T10:43:48.499Z,22.07
2022-12-14T10:48:54.661Z,21.76
2022-12-14T10:54:00.721Z,21.26
2022-12-14T10:59:06.925Z,20.58
2022-12-14T11:04:13.010Z,19.47
2022-12-14T11:09:19.245Z,20.29
2022-12-14T11:14:25.331Z,17.60
2022-12-14T11:19:31.563Z,15.68
2022-12-14T11:24:38.017Z,17.94
2022-12-14T11:29:44.201Z,18.35
2022-12-14T11:34:50.264Z,17.03
2022-12-14T11:39:56.496Z,18.72
2022-12-14T11:45:02.554Z,18.27
2022-12-14T11:50:09.044Z,17.27
2022-12-14T11:55:15.880Z,17.45
2022-12-14T12:00:21.199Z,16.44
2022-12-14T12:05:27.393Z,18.28
2022-12-14T12:10:33.620Z,17.75
2022-12-14T12:15:39.836Z,19.61
2022-12-14T12:20:46.069Z,20.09
2022-12-14T12:25:51.664Z,20.58
2022-12-14T12:32:06.706Z,25.17
2022-12-14T12:37:26.837Z,20.52
2022-12-14T12:42:18.519Z,19.43
2022-12-14T12:47:30.196Z,20.39
2022-12-14T12:52:30.491Z,23.85
2022-12-14T12:57:36.548Z,21.23
2022-12-14T13:02:43.083Z,21.41
2022-12-14T13:07:48.426Z,24.07
2022-12-14T13:12:54.594Z,22.78
2022-12-14T13:18:00.746Z,20.59
2022-12-14T13:23:44.238Z,20.36
2022-12-14T13:28:12.517Z,24.36
2022-12-14T13:33:18.731Z,21.25
2022-12-14T13:38:30.997Z,20.01
2022-12-14T13:43:30.945Z,19.63
2022-12-14T13:48:37.300Z,19.34
2022-12-14T13:53:43.572Z,21.51
2022-12-14T13:58:49.200Z,20.42
2022-12-14T14:03:55.648Z,18.35
2022-12-14T14:09:01.583Z,16.89
2022-12-14T14:14:07.778Z,15.57
2022-12-14T14:19:14.654Z,14.79
2022-12-14T14:24:21.179Z,15.61
2022-12-14T14:29:27.579Z,14.44
2022-12-14T14:34:33.757Z,13.88
2022-12-14T14:39:57.622Z,13.59
2022-12-14T14:44:45.587Z,14.35
2022-12-14T14:49:51.654Z,14.28
2022-12-14T14:55:21.693Z,12.58
2022-12-14T15:00:03.537Z,14.54
2022-12-14T15:05:40.831Z,15.85
2022-12-14T15:10:20.724Z,13.19
2022-12-14T15:15:21.299Z,13.97
2022-12-14T15:20:27.394Z,13.95
2022-12-14T15:25:33.667Z,15.54
2022-12-14T15:30:40.618Z,14.41
2022-12-14T15:35:46.899Z,16.07
2022-12-14T15:40:52.484Z,16.39
2022-12-14T15:46:03.044Z,30.80
2022-12-14T15:51:04.352Z,18.46
2022-12-14T15:56:11.902Z,19.14
2022-12-14T16:01:16.161Z,17.37
2022-12-14T16:06:22.759Z,19.55
2022-12-14T16:11:28.902Z,19.79
2022-12-14T16:16:35.172Z,19.51
2022-12-14T16:21:41.176Z,20.36
2022-12-14T16:26:47.330Z,20.52
2022-12-14T16:31:53.511Z,21.27
2022-12-14T16:37:30.960Z,24.48
2022-12-14T16:42:05.398Z,24.79
2022-12-14T16:47:11.575Z,23.62
2022-12-14T16:52:17.655Z,25.00
2022-12-14T16:57:24.303Z,24.76
2022-12-14T17:02:30.736Z,25.97
2022-12-14T17:07:36.347Z,22.52
2022-12-14T17:12:42.921Z,28.03
2022-12-14T17:17:49.312Z,26.34
2022-12-14T17:22:55.166Z,25.78
2022-12-14T17:28:01.536Z,26.83
2022-12-14T17:33:07.742Z,27.98
2022-12-14T17:38:14.276Z,29.22
2022-12-14T17:43:20.424Z,28.15
2022-12-14T17:48:26.700Z,29.54
2022-12-14T17:53:33.260Z,31.34
2022-12-14T17:58:38.819Z,59.00
2022-12-14T18:03:45.357Z,39.28
2022-12-14T18:08:51.574Z,35.97
2022-12-14T18:13:57.651Z,33.40
2022-12-14T18:19:03.936Z,31.51
2022-12-14T18:24:13.054Z,30.41
2022-12-14T18:29:15.881Z,32.44
2022-12-14T18:34:22.457Z,35.08
2022-12-14T18:39:28.602Z,30.25
2022-12-14T18:44:34.718Z,33.24
2022-12-14T18:49:40.904Z,31.16
2022-12-14T18:54:47.415Z,31.58
2022-12-14T18:59:53.681Z,34.00
2022-12-14T19:04:59.857Z,38.90
2022-12-14T19:10:06.045Z,36.34
2022-12-14T19:15:12.200Z,33.35
2022-12-14T19:20:18.749Z,35.46
2022-12-14T19:25:24.813Z,33.50
2022-12-14T19:30:31.077Z,30.60
2022-12-14T19:35:37.138Z,27.81
2022-12-14T19:40:43.742Z,25.04
2022-12-14T19:45:50.226Z,21.70
2022-12-14T19:50:56.671Z,21.01
2022-12-14T19:56:02.818Z,21.05
2022-12-14T20:01:09.381Z,19.51
2022-12-14T20:06:15.517Z,20.50
2022-12-14T20:11:21.698Z,21.39
2022-12-14T20:16:28.233Z,22.71
2022-12-14T20:21:34.766Z,18.73
2022-12-14T20:26:40.865Z,19.46
2022-12-14T20:31:47.122Z,18.34
2022-12-14T20:36:53.119Z,19.27
2022-12-14T20:42:15.709Z,18.75
2022-12-14T20:47:22.667Z,19.03
2022-12-14T20:52:28.874Z,18.97
2022-12-14T20:57:35.035Z,19.69
2022-12-14T21:02:41.779Z,20.20
2022-12-14T21:07:48.020Z,22.28
2022-12-14T21:12:54.291Z,20.22
2022-12-14T21:18:00.362Z,18.88
2022-12-14T21:23:06.750Z,17.59
2022-12-14T21:28:13.645Z,16.44
2022-12-14T21:33:19.804Z,17.28
2022-12-14T21:38:26.184Z,17.95
2022-12-14T21:43:32.921Z,16.93
2022-12-14T21:48:38.030Z,16.72
2022-12-14T21:53:44.263Z,14.69
2022-12-14T21:58:53.103Z,14.82
2022-12-14T22:03:56.194Z,16.18
2022-12-14T22:09:02.306Z,13.35
2022-12-14T22:14:08.651Z,13.41
2022-12-14T22:19:14.798Z,12.50
2022-12-14T22:24:21.035Z,14.69
2022-12-14T22:29:27.273Z,14.82
2022-12-14T22:34:33.545Z,16.58
2022-12-14T22:39:39.674Z,15.64
2022-12-14T22:44:45.859Z,15.14
2022-12-14T22:50:47.878Z,17.64
2022-12-14T22:55:54.354Z,15.00
2022-12-14T23:01:00.444Z,15.17
2022-12-14T23:06:06.608Z,14.52
2022-12-14T23:11:12.705Z,16.67
2022-12-14T23:16:18.966Z,16.01
2022-12-14T23:21:25.058Z,15.62
2022-12-14T23:26:31.278Z,14.90
2022-12-14T23:31:37.441Z,15.89
2022-12-14T23:36:43.650Z,15.76
2022-12-14T23:41:49.863Z,15.51
2022-12-14T23:46:56.043Z,15.49
2022-12-14T23:52:02.111Z,15.29
2022-12-14T23:57:09.139Z,14.14
